Time,TemperatureF,DewpointF,PressureIn,WindDirection,WindDirectionDegrees,WindSpeedMPH,WindSpeedGustMPH,Humidity,HourlyPrecipIn,Conditions,Clouds,dailyrainin,SoftwareType,DateUTC
2013-11-13 00:02:00,21.5,14.2,30.53,SSW,206,8.0,11.0,73,0.00,,,0.00,VWS V12.08,2013-11-13 06:02:00,
2013-11-13 00:07:00,21.5,14.2,30.53,SW,221,5.0,11.0,73,0.00,,,0.00,VWS V12.08,2013-11-13 06:07:00,
2013-11-13 00:12:00,21.4,14.1,30.52,SSE,161,6.0,11.0,73,0.00,,,0.00,VWS V12.08,2013-11-13 06:12:00,
2013-11-13 00:17:00,21.2,14.2,30.52,South,175,4.0,11.0,74,0.00,,,0.00,VWS V12.08,2013-11-13 06:17:00,
2013-11-13 00:22:00,20.9,13.9,30.52,SSE,149,5.0,11.0,74,0.00,,,0.00,VWS V12.08,2013-11-13 06:22:00,
2013-11-13 00:27:00,20.6,13.9,30.52,SW,225,7.0,11.0,75,0.00,,,0.00,VWS V12.08,2013-11-13 06:27:00,
2013-11-13 00:32:00,20.6,14.2,30.51,South,185,3.0,4.0,76,0.00,,,0.00,VWS V12.08,2013-11-13 06:32:00,
2013-11-13 00:37:00,20.8,14.1,30.51,South,175,3.0,8.0,75,0.00,,,0.00,VWS V12.08,2013-11-13 06:37:00,
2013-11-13 00:41:00,20.7,14.0,30.51,SSW,207,2.0,8.0,75,0.00,,,0.00,VWS V12.08,2013-11-13 06:41:00,
2013-11-13 00:46:00,20.6,14.2,30.51,South,178,3.0,8.0,76,0.00,,,0.00,VWS V12.08,2013-11-13 06:46:00,
2013-11-13 00:51:00,20.5,14.1,30.50,SSW,210,4.0,9.0,76,0.00,,,0.00,VWS V12.08,2013-11-13 06:51:00,
2013-11-13 00:56:00,20.4,14.1,30.50,South,187,5.0,9.0,76,0.00,,,0.00,VWS V12.08,2013-11-13 06:56:00,
2013-11-13 01:01:00,20.4,14.1,30.49,SSW,194,6.0,7.0,76,0.00,,,0.00,VWS V12.08,2013-11-13 07:01:00,
2013-11-13 01:06:00,20.4,14.1,30.49,SE,146,6.0,11.0,76,0.00,,,0.00,VWS V12.08,2013-11-13 07:06:00,
2013-11-13 01:11:00,20.3,14.0,30.49,SSW,209,3.0,11.0,76,0.00,,,0.00,VWS V12.08,2013-11-13 07:11:00,
2013-11-13 01:16:00,20.2,14.2,30.49,SW,225,2.0,11.0,77,0.00,,,0.00,VWS V12.08,2013-11-13 07:16:00,
2013-11-13 01:21:00,20.2,14.2,30.49,SSE,164,4.0,11.0,77,0.00,,,0.00,VWS V12.08,2013-11-13 07:21:00,
2013-11-13 01:26:00,20.1,14.1,30.48,SE,141,2.0,11.0,77,0.00,,,0.00,VWS V12.08,2013-11-13 07:26:00,
2013-11-13 01:31:00,20.1,14.1,30.48,South,180,4.0,6.0,77,0.00,,,0.00,VWS V12.08,2013-11-13 07:31:00,
2013-11-13 01:36:00,20.1,14.1,30.48,South,180,6.0,7.0,77,0.00,,,0.00,VWS V12.08,2013-11-13 07:36:00,
2013-11-13 01:41:00,20.3,14.3,30.48,SSW,192,6.0,10.0,77,0.00,,,0.00,VWS V12.08,2013-11-13 07:41:00,
2013-11-13 01:46:00,20.5,14.1,30.48,South,191,4.0,10.0,76,0.00,,,0.00,VWS V12.08,2013-11-13 07:46:00,
2013-11-13 01:51:00,20.6,14.6,30.47,South,191,5.0,10.0,77,0.00,,,0.00,VWS V12.08,2013-11-13 07:51:00,
2013-11-13 01:56:00,20.6,14.6,30.47,South,176,6.0,10.0,77,0.00,,,0.00,VWS V12.08,2013-11-13 07:56:00,
2013-11-13 02:01:00,20.6,14.6,30.47,South,187,3.0,5.0,77,0.00,,,0.00,VWS V12.08,2013-11-13 08:01:00,
2013-11-13 02:06:00,20.6,14.6,30.46,South,191,4.0,6.0,77,0.00,,,0.00,VWS V12.08,2013-11-13 08:06:00,
2013-11-13 02:11:00,20.5,14.4,30.46,SSW,206,3.0,7.0,77,0.00,,,0.00,VWS V12.08,2013-11-13 08:11:00,
2013-11-13 02:16:00,20.5,14.4,30.45,SSW,209,7.0,11.0,77,0.00,,,0.00,VWS V12.08,2013-11-13 08:16:00,
2013-11-13 02:21:00,20.5,14.7,30.44,SSW,199,5.0,11.0,78,0.00,,,0.00,VWS V12.08,2013-11-13 08:21:00,
2013-11-13 02:26:00,20.5,14.7,30.44,SSW,199,2.0,11.0,78,0.00,,,0.00,VWS V12.08,2013-11-13 08:26:00,
2013-11-13 02:31:00,20.5,14.7,30.44,SW,223,3.0,6.0,78,0.00,,,0.00,VWS V12.08,2013-11-13 08:31:00,
2013-11-13 02:36:00,20.5,14.7,30.44,South,176,3.0,8.0,78,0.00,,,0.00,VWS V12.08,2013-11-13 08:36:00,
2013-11-13 02:41:00,20.7,14.9,30.44,South,176,10.0,10.0,78,0.00,,,0.00,VWS V12.08,2013-11-13 08:41:00,
2013-11-13 02:46:00,21.0,15.2,30.43,SW,215,5.0,11.0,78,0.00,,,0.00,VWS V12.08,2013-11-13 08:46:00,
2013-11-13 02:51:00,21.4,15.6,30.43,SSW,194,7.0,11.0,78,0.00,,,0.00,VWS V12.08,2013-11-13 08:51:00,
2013-11-13 02:56:00,21.7,15.9,30.43,SSW,203,5.0,11.0,78,0.00,,,0.00,VWS V12.08,2013-11-13 08:56:00,
2013-11-13 03:02:00,21.9,16.1,30.42,SW,229,5.0,7.0,78,0.00,,,0.00,VWS V12.08,2013-11-13 09:02:00,
2013-11-13 03:07:00,22.1,16.0,30.42,SW,214,4.0,11.0,77,0.00,,,0.00,VWS V12.08,2013-11-13 09:07:00,
2013-11-13 03:12:00,22.2,16.4,30.42,South,169,7.0,12.0,78,0.00,,,0.00,VWS V12.08,2013-11-13 09:12:00,
2013-11-13 03:17:00,22.3,16.2,30.41,SSW,213,7.0,12.0,77,0.00,,,0.00,VWS V12.08,2013-11-13 09:17:00,
2013-11-13 03:22:00,22.6,16.5,30.40,SW,217,6.0,6.0,77,0.00,,,0.00,VWS V12.08,2013-11-13 09:22:00,
2013-11-13 03:27:00,22.9,16.8,30.40,SSW,213,4.0,12.0,77,0.00,,,0.00,VWS V12.08,2013-11-13 09:27:00,
2013-11-13 03:32:00,23.2,16.8,30.39,South,183,9.0,10.0,76,0.00,,,0.00,VWS V12.08,2013-11-13 09:32:00,
2013-11-13 03:37:00,23.4,17.0,30.39,South,190,7.0,12.0,76,0.00,,,0.00,VWS V12.08,2013-11-13 09:37:00,
2013-11-13 03:42:00,23.6,17.2,30.38,SW,225,9.0,13.0,76,0.00,,,0.00,VWS V12.08,2013-11-13 09:42:00,
2013-11-13 03:47:00,23.7,17.3,30.38,South,183,11.0,13.0,76,0.00,,,0.00,VWS V12.08,2013-11-13 09:47:00,
2013-11-13 03:52:00,23.9,17.1,30.37,South,188,10.0,15.0,75,0.00,,,0.00,VWS V12.08,2013-11-13 09:52:00,
2013-11-13 03:57:00,24.0,17.2,30.36,SE,126,3.0,15.0,75,0.00,,,0.00,VWS V12.08,2013-11-13 09:57:00,
2013-11-13 04:02:00,24.2,17.4,30.36,SSW,196,6.0,9.0,75,0.00,,,0.00,VWS V12.08,2013-11-13 10:02:00,
2013-11-13 04:07:00,24.2,17.4,30.36,SW,225,11.0,12.0,75,0.00,,,0.00,VWS V12.08,2013-11-13 10:07:00,
2013-11-13 04:12:00,24.3,17.5,30.35,WSW,242,4.0,12.0,75,0.00,,,0.00,VWS V12.08,2013-11-13 10:12:00,
2013-11-13 04:17:00,24.4,17.6,30.35,SSW,203,6.0,12.0,75,0.00,,,0.00,VWS V12.08,2013-11-13 10:17:00,
2013-11-13 04:22:00,24.5,17.7,30.35,WSW,237,11.0,14.0,75,0.00,,,0.00,VWS V12.08,2013-11-13 10:22:00,
2013-11-13 04:27:00,24.6,17.8,30.34,SW,214,10.0,14.0,75,0.00,,,0.00,VWS V12.08,2013-11-13 10:27:00,
2013-11-13 04:32:00,24.8,18.0,30.34,SSW,194,5.0,13.0,75,0.00,,,0.00,VWS V12.08,2013-11-13 10:32:00,
2013-11-13 04:37:00,24.9,18.1,30.34,SSW,203,12.0,16.0,75,0.00,,,0.00,VWS V12.08,2013-11-13 10:37:00,
2013-11-13 04:42:00,25.0,18.2,30.33,South,187,7.0,16.0,75,0.00,,,0.00,VWS V12.08,2013-11-13 10:42:00,
2013-11-13 04:47:00,25.1,18.3,30.33,South,175,10.0,16.0,75,0.00,,,0.00,VWS V12.08,2013-11-13 10:47:00,
2013-11-13 04:52:00,25.2,18.4,30.33,SSE,167,6.0,19.0,75,0.00,,,0.00,VWS V12.08,2013-11-13 10:52:00,
2013-11-13 04:57:00,25.1,18.3,30.33,SSE,168,6.0,19.0,75,0.00,,,0.00,VWS V12.08,2013-11-13 10:57:00,
2013-11-13 05:02:00,25.2,18.4,30.33,South,171,10.0,14.0,75,0.00,,,0.00,VWS V12.08,2013-11-13 11:02:00,
2013-11-13 05:07:00,25.2,18.4,30.33,SSE,168,8.0,15.0,75,0.00,,,0.00,VWS V12.08,2013-11-13 11:07:00,
2013-11-13 05:12:00,25.3,18.5,30.33,South,173,10.0,15.0,75,0.00,,,0.00,VWS V12.08,2013-11-13 11:12:00,
2013-11-13 05:17:00,25.2,18.4,30.33,SSW,213,7.0,15.0,75,0.00,,,0.00,VWS V12.08,2013-11-13 11:17:00,
2013-11-13 05:22:00,25.2,18.4,30.32,South,183,12.0,15.0,75,0.00,,,0.00,VWS V12.08,2013-11-13 11:22:00,
2013-11-13 05:27:00,25.2,18.7,30.32,SW,216,3.0,15.0,76,0.00,,,0.00,VWS V12.08,2013-11-13 11:27:00,
2013-11-13 05:32:00,25.2,18.7,30.32,SSE,165,6.0,14.0,76,0.00,,,0.00,VWS V12.08,2013-11-13 11:32:00,
2013-11-13 05:37:00,25.3,18.8,30.32,South,179,14.0,14.0,76,0.00,,,0.00,VWS V12.08,2013-11-13 11:37:00,
2013-11-13 05:42:00,25.3,18.8,30.31,SSW,193,6.0,14.0,76,0.00,,,0.00,VWS V12.08,2013-11-13 11:42:00,
2013-11-13 05:47:00,25.2,18.7,30.31,South,188,6.0,14.0,76,0.00,,,0.00,VWS V12.08,2013-11-13 11:47:00,
2013-11-13 05:52:00,25.2,18.7,30.31,SSW,203,7.0,14.0,76,0.00,,,0.00,VWS V12.08,2013-11-13 11:52:00,
2013-11-13 05:57:00,25.1,18.6,30.30,South,186,10.0,14.0,76,0.00,,,0.00,VWS V12.08,2013-11-13 11:57:00,
2013-11-13 06:02:00,25.1,18.6,30.30,South,190,10.0,12.0,76,0.00,,,0.00,VWS V12.08,2013-11-13 12:02:00,
2013-11-13 06:07:00,25.0,18.8,30.30,SSW,194,15.0,15.0,77,0.00,,,0.00,VWS V12.08,2013-11-13 12:07:00,
2013-11-13 06:12:00,24.9,18.7,30.30,SW,215,5.0,15.0,77,0.00,,,0.00,VWS V12.08,2013-11-13 12:12:00,
2013-11-13 06:17:00,25.0,18.8,30.30,SSE,159,7.0,15.0,77,0.00,,,0.00,VWS V12.08,2013-11-13 12:17:00,
2013-11-13 06:22:00,25.1,18.9,30.30,SSE,160,3.0,15.0,77,0.00,,,0.00,VWS V12.08,2013-11-13 12:22:00,
2013-11-13 06:27:00,25.1,18.9,30.30,SSW,207,4.0,15.0,77,0.00,,,0.00,VWS V12.08,2013-11-13 12:27:00,
2013-11-13 06:32:00,25.0,18.8,30.29,SSW,207,11.0,11.0,77,0.00,,,0.00,VWS V12.08,2013-11-13 12:32:00,
2013-11-13 06:37:00,25.1,18.9,30.29,South,186,8.0,11.0,77,0.00,,,0.00,VWS V12.08,2013-11-13 12:37:00,
2013-11-13 06:42:00,25.1,18.9,30.29,SSW,202,7.0,15.0,77,0.00,,,0.00,VWS V12.08,2013-11-13 12:42:00,
2013-11-13 06:47:00,25.1,18.9,30.28,South,169,9.0,15.0,77,0.00,,,0.00,VWS V12.08,2013-11-13 12:47:00,
2013-11-13 06:52:00,25.1,18.9,30.28,SSW,202,11.0,15.0,77,0.00,,,0.00,VWS V12.08,2013-11-13 12:52:00,
2013-11-13 06:57:00,25.0,18.8,30.28,South,191,10.0,15.0,77,0.00,,,0.00,VWS V12.08,2013-11-13 12:57:00,
2013-11-13 07:02:00,24.9,18.7,30.28,SSW,199,10.0,12.0,77,0.00,,,0.00,VWS V12.08,2013-11-13 13:02:00,
2013-11-13 07:07:00,24.8,18.6,30.27,South,171,14.0,15.0,77,0.00,,,0.00,VWS V12.08,2013-11-13 13:07:00,
2013-11-13 07:12:00,24.8,18.9,30.27,SSW,200,6.0,15.0,78,0.00,,,0.00,VWS V12.08,2013-11-13 13:12:00,
2013-11-13 07:17:00,24.6,18.7,30.26,South,178,9.0,15.0,78,0.00,,,0.00,VWS V12.08,2013-11-13 13:17:00,
2013-11-13 07:22:00,24.6,18.7,30.26,SSE,166,10.0,15.0,78,0.00,,,0.00,VWS V12.08,2013-11-13 13:22:00,
2013-11-13 07:27:00,24.6,18.7,30.26,SSW,198,13.0,15.0,78,0.00,,,0.00,VWS V12.08,2013-11-13 13:27:00,
2013-11-13 07:32:00,24.8,18.9,30.25,South,169,12.0,14.0,78,0.00,,,0.00,VWS V12.08,2013-11-13 13:32:00,
2013-11-13 07:37:00,25.0,19.1,30.25,SSW,196,5.0,14.0,78,0.00,,,0.00,VWS V12.08,2013-11-13 13:37:00,
2013-11-13 07:42:00,25.3,19.4,30.25,South,176,6.0,14.0,78,0.00,,,0.00,VWS V12.08,2013-11-13 13:42:00,
2013-11-13 07:47:00,25.5,19.3,30.24,WSW,239,6.0,15.0,77,0.00,,,0.00,VWS V12.08,2013-11-13 13:47:00,
2013-11-13 07:52:00,25.6,19.4,30.24,SE,145,10.0,16.0,77,0.00,,,0.00,VWS V12.08,2013-11-13 13:52:00,
2013-11-13 07:57:00,25.9,19.7,30.24,SSW,213,11.0,16.0,77,0.00,,,0.00,VWS V12.08,2013-11-13 13:57:00,
2013-11-13 08:02:00,26.1,19.9,30.23,SSW,195,11.0,14.0,77,0.00,,,0.00,VWS V12.08,2013-11-13 14:02:00,
2013-11-13 08:07:00,26.3,20.1,30.23,SSW,213,11.0,15.0,77,0.00,,,0.00,VWS V12.08,2013-11-13 14:07:00,
2013-11-13 08:12:00,26.6,20.4,30.23,South,190,11.0,15.0,77,0.00,,,0.00,VWS V12.08,2013-11-13 14:12:00,
2013-11-13 08:17:00,26.9,20.7,30.23,South,171,7.0,15.0,77,0.00,,,0.00,VWS V12.08,2013-11-13 14:17:00,
2013-11-13 08:22:00,27.3,21.1,30.24,SSW,206,11.0,15.0,77,0.00,,,0.00,VWS V12.08,2013-11-13 14:22:00,
2013-11-13 08:27:00,27.6,21.4,30.24,SW,223,10.0,15.0,77,0.00,,,0.00,VWS V12.08,2013-11-13 14:27:00,
2013-11-13 08:32:00,28.0,21.4,30.23,SSW,196,14.0,20.0,76,0.00,,,0.00,VWS V12.08,2013-11-13 14:32:00,
2013-11-13 08:37:00,28.5,21.9,30.23,SSW,207,17.0,20.0,76,0.00,,,0.00,VWS V12.08,2013-11-13 14:37:00,
2013-11-13 08:42:00,28.8,22.2,30.23,SW,223,11.0,20.0,76,0.00,,,0.00,VWS V12.08,2013-11-13 14:42:00,
2013-11-13 08:47:00,29.2,22.3,30.23,SSW,205,13.0,20.0,75,0.00,,,0.00,VWS V12.08,2013-11-13 14:47:00,
2013-11-13 08:52:00,29.6,22.7,30.23,SW,214,9.0,21.0,75,0.00,,,0.00,VWS V12.08,2013-11-13 14:52:00,
2013-11-13 08:57:00,30.0,23.0,30.22,SE,144,7.0,22.0,75,0.00,,,0.00,VWS V12.08,2013-11-13 14:57:00,
2013-11-13 09:02:00,30.2,23.2,30.22,SW,225,13.0,18.0,75,0.00,,,0.00,VWS V12.08,2013-11-13 15:02:00,
2013-11-13 09:07:00,30.6,23.6,30.22,South,169,12.0,18.0,75,0.00,,,0.00,VWS V12.08,2013-11-13 15:07:00,
2013-11-13 09:12:00,30.9,23.9,30.22,SSW,195,12.0,18.0,75,0.00,,,0.00,VWS V12.08,2013-11-13 15:12:00,
2013-11-13 09:17:00,31.2,24.2,30.22,SW,221,14.0,19.0,75,0.00,,,0.00,VWS V12.08,2013-11-13 15:17:00,
2013-11-13 09:22:00,31.7,24.4,30.22,SSW,207,13.0,19.0,74,0.00,,,0.00,VWS V12.08,2013-11-13 15:22:00,
2013-11-13 09:27:00,32.1,24.4,30.21,South,184,17.0,20.0,73,0.00,,,0.00,VWS V12.08,2013-11-13 15:27:00,
2013-11-13 09:32:00,32.5,24.8,30.21,SSW,205,16.0,19.0,73,0.00,,,0.00,VWS V12.08,2013-11-13 15:32:00,
2013-11-13 09:37:00,32.9,25.2,30.21,South,171,6.0,19.0,73,0.00,,,0.00,VWS V12.08,2013-11-13 15:37:00,
2013-11-13 09:42:00,33.3,25.6,30.21,South,182,14.0,19.0,73,0.00,,,0.00,VWS V12.08,2013-11-13 15:42:00,
2013-11-13 09:47:00,33.8,26.1,30.21,SSW,211,14.0,19.0,73,0.00,,,0.00,VWS V12.08,2013-11-13 15:47:00,
2013-11-13 09:52:00,34.2,26.1,30.21,SSW,213,7.0,19.0,72,0.00,,,0.00,VWS V12.08,2013-11-13 15:52:00,
2013-11-13 09:57:00,34.7,26.6,30.20,SSW,198,12.0,19.0,72,0.00,,,0.00,VWS V12.08,2013-11-13 15:57:00,
2013-11-13 10:02:00,35.4,27.3,30.20,SW,232,15.0,17.0,72,0.00,,,0.00,VWS V12.08,2013-11-13 16:02:00,
2013-11-13 10:07:00,36.1,27.6,30.20,South,191,12.0,19.0,71,0.00,,,0.00,VWS V12.08,2013-11-13 16:07:00,
2013-11-13 10:12:00,36.6,28.1,30.20,SSW,203,11.0,19.0,71,0.00,,,0.00,VWS V12.08,2013-11-13 16:12:00,
2013-11-13 10:17:00,37.0,28.1,30.20,SSW,196,11.0,19.0,70,0.00,,,0.00,VWS V12.08,2013-11-13 16:17:00,
2013-11-13 10:22:00,37.7,28.8,30.20,SW,221,9.0,19.0,70,0.00,,,0.00,VWS V12.08,2013-11-13 16:22:00,
2013-11-13 10:27:00,38.3,28.7,30.20,SW,225,13.0,19.0,68,0.00,,,0.00,VWS V12.08,2013-11-13 16:27:00,
2013-11-13 10:32:00,38.9,29.2,30.19,SW,221,10.0,15.0,68,0.00,,,0.00,VWS V12.08,2013-11-13 16:32:00,
2013-11-13 10:37:00,39.3,29.6,30.19,SW,234,10.0,18.0,68,0.00,,,0.00,VWS V12.08,2013-11-13 16:37:00,
2013-11-13 10:42:00,40.0,29.9,30.18,SSW,192,11.0,19.0,67,0.00,,,0.00,VWS V12.08,2013-11-13 16:42:00,
2013-11-13 10:47:00,40.5,30.0,30.18,SSW,210,10.0,19.0,66,0.00,,,0.00,VWS V12.08,2013-11-13 16:47:00,
2013-11-13 10:52:00,40.9,30.4,30.17,WSW,237,10.0,19.0,66,0.00,,,0.00,VWS V12.08,2013-11-13 16:52:00,
2013-11-13 10:57:00,41.5,30.6,30.17,South,188,11.0,20.0,65,0.00,,,0.00,VWS V12.08,2013-11-13 16:57:00,
2013-11-13 11:02:00,42.0,31.1,30.17,SSW,212,12.0,14.0,65,0.00,,,0.00,VWS V12.08,2013-11-13 17:02:00,
2013-11-13 11:07:00,42.5,31.2,30.16,South,191,18.0,18.0,64,0.00,,,0.00,VWS V12.08,2013-11-13 17:07:00,
2013-11-13 11:12:00,42.7,31.4,30.16,SW,217,14.0,20.0,64,0.00,,,0.00,VWS V12.08,2013-11-13 17:12:00,
2013-11-13 11:17:00,43.1,31.4,30.16,SW,221,14.0,20.0,63,0.00,,,0.00,VWS V12.08,2013-11-13 17:17:00,
2013-11-13 11:22:00,43.6,31.9,30.15,SSW,196,16.0,20.0,63,0.00,,,0.00,VWS V12.08,2013-11-13 17:22:00,
2013-11-13 11:27:00,44.3,32.9,30.15,South,173,10.0,20.0,64,0.00,,,0.00,VWS V12.08,2013-11-13 17:27:00,
2013-11-13 11:32:00,45.2,33.0,30.14,SSW,211,23.0,23.0,62,0.00,,,0.00,VWS V12.08,2013-11-13 17:32:00,
2013-11-13 11:37:00,45.8,32.7,30.13,South,176,12.0,23.0,60,0.00,,,0.00,VWS V12.08,2013-11-13 17:37:00,
2013-11-13 11:42:00,45.9,33.2,30.13,SSW,199,13.0,23.0,61,0.00,,,0.00,VWS V12.08,2013-11-13 17:42:00,
2013-11-13 11:47:00,46.4,33.7,30.13,SW,232,11.0,23.0,61,0.00,,,0.00,VWS V12.08,2013-11-13 17:47:00,
2013-11-13 11:52:00,47.1,33.9,30.12,South,184,8.0,23.0,60,0.00,,,0.00,VWS V12.08,2013-11-13 17:52:00,
2013-11-13 11:57:00,47.6,33.6,30.12,SW,235,16.0,23.0,58,0.00,,,0.00,VWS V12.08,2013-11-13 17:57:00,
2013-11-13 12:02:00,48.0,33.9,30.12,SW,222,7.0,17.0,58,0.00,,,0.00,VWS V12.08,2013-11-13 18:02:00,
2013-11-13 12:07:00,48.7,34.2,30.12,SW,218,16.0,18.0,57,0.00,,,0.00,VWS V12.08,2013-11-13 18:07:00,
2013-11-13 12:12:00,49.1,33.7,30.11,SW,234,22.0,27.0,55,0.00,,,0.00,VWS V12.08,2013-11-13 18:12:00,
2013-11-13 12:17:00,49.2,33.7,30.10,SW,222,20.0,27.0,55,0.00,,,0.00,VWS V12.08,2013-11-13 18:17:00,
2013-11-13 12:22:00,49.5,34.5,30.10,SSW,198,23.0,27.0,56,0.00,,,0.00,VWS V12.08,2013-11-13 18:22:00,
2013-11-13 12:27:00,49.7,33.8,30.09,SSW,207,13.0,27.0,54,0.00,,,0.00,VWS V12.08,2013-11-13 18:27:00,
2013-11-13 12:32:00,50.0,34.5,30.09,SW,214,15.0,19.0,55,0.00,,,0.00,VWS V12.08,2013-11-13 18:32:00,
2013-11-13 12:37:00,50.4,34.4,30.09,SSW,193,11.0,22.0,54,0.00,,,0.00,VWS V12.08,2013-11-13 18:37:00,
2013-11-13 12:42:00,50.8,34.8,30.08,SW,222,23.0,23.0,54,0.00,,,0.00,VWS V12.08,2013-11-13 18:42:00,
2013-11-13 12:47:00,50.8,34.3,30.08,SSW,199,15.0,24.0,53,0.00,,,0.00,VWS V12.08,2013-11-13 18:47:00,
2013-11-13 12:52:00,51.1,34.6,30.07,SSW,205,15.0,24.0,53,0.00,,,0.00,VWS V12.08,2013-11-13 18:52:00,
2013-11-13 12:57:00,51.6,35.0,30.07,SSW,198,16.0,24.0,53,0.00,,,0.00,VWS V12.08,2013-11-13 18:57:00,
2013-11-13 13:02:00,52.1,35.0,30.07,SW,227,11.0,21.0,52,0.00,,,0.00,VWS V12.08,2013-11-13 19:02:00,
2013-11-13 13:07:00,52.4,35.3,30.07,South,191,12.0,21.0,52,0.00,,,0.00,VWS V12.08,2013-11-13 19:07:00,
2013-11-13 13:12:00,52.8,35.7,30.07,SW,218,14.0,21.0,52,0.00,,,0.00,VWS V12.08,2013-11-13 19:12:00,
2013-11-13 13:17:00,53.2,35.6,30.07,SSW,193,15.0,21.0,51,0.00,,,0.00,VWS V12.08,2013-11-13 19:17:00,
2013-11-13 13:22:00,53.7,35.5,30.07,SSW,198,9.0,21.0,50,0.00,,,0.00,VWS V12.08,2013-11-13 19:22:00,
2013-11-13 13:27:00,54.1,35.9,30.06,SSW,203,15.0,21.0,50,0.00,,,0.00,VWS V12.08,2013-11-13 19:27:00,
2013-11-13 13:32:00,54.6,35.8,30.06,South,188,11.0,16.0,49,0.00,,,0.00,VWS V12.08,2013-11-13 19:32:00,
2013-11-13 13:37:00,55.0,35.7,30.05,SSW,198,14.0,24.0,48,0.00,,,0.00,VWS V12.08,2013-11-13 19:37:00,
2013-11-13 13:42:00,55.6,35.7,30.06,SW,232,15.0,26.0,47,0.00,,,0.00,VWS V12.08,2013-11-13 19:42:00,
2013-11-13 13:47:00,56.1,35.1,30.05,SSW,213,8.0,26.0,45,0.00,,,0.00,VWS V12.08,2013-11-13 19:47:00,
2013-11-13 13:52:00,56.3,35.2,30.04,SSW,210,15.0,26.0,45,0.00,,,0.00,VWS V12.08,2013-11-13 19:52:00,
2013-11-13 13:57:00,56.6,35.5,30.05,SW,222,13.0,26.0,45,0.00,,,0.00,VWS V12.08,2013-11-13 19:57:00,
2013-11-13 14:02:00,56.7,35.6,30.04,SW,234,12.0,19.0,45,0.00,,,0.00,VWS V12.08,2013-11-13 20:02:00,
2013-11-13 14:07:00,56.8,35.1,30.04,WSW,243,20.0,22.0,44,0.00,,,0.00,VWS V12.08,2013-11-13 20:07:00,
2013-11-13 14:12:00,57.0,35.9,30.03,SW,219,17.0,22.0,45,0.00,,,0.00,VWS V12.08,2013-11-13 20:12:00,
2013-11-13 14:17:00,57.2,35.5,30.03,SSW,207,13.0,23.0,44,0.00,,,0.00,VWS V12.08,2013-11-13 20:17:00,
2013-11-13 14:22:00,57.3,35.6,30.03,SW,227,18.0,25.0,44,0.00,,,0.00,VWS V12.08,2013-11-13 20:22:00,
2013-11-13 14:27:00,57.5,35.8,30.03,SSW,210,13.0,25.0,44,0.00,,,0.00,VWS V12.08,2013-11-13 20:27:00,
2013-11-13 14:32:00,57.7,36.0,30.03,SSW,192,7.0,25.0,44,0.00,,,0.00,VWS V12.08,2013-11-13 20:32:00,
2013-11-13 14:37:00,57.9,36.1,30.02,SSW,213,16.0,25.0,44,0.00,,,0.00,VWS V12.08,2013-11-13 20:37:00,
2013-11-13 14:42:00,58.0,35.7,30.02,SSW,199,14.0,25.0,43,0.00,,,0.00,VWS V12.08,2013-11-13 20:42:00,
2013-11-13 14:47:00,58.1,35.7,30.02,SSW,210,15.0,25.0,43,0.00,,,0.00,VWS V12.08,2013-11-13 20:47:00,
2013-11-13 14:52:00,58.2,35.8,30.02,SW,217,11.0,25.0,43,0.00,,,0.00,VWS V12.08,2013-11-13 20:52:00,
2013-11-13 14:57:00,58.3,36.5,30.02,SW,234,14.0,25.0,44,0.00,,,0.00,VWS V12.08,2013-11-13 20:57:00,
2013-11-13 15:02:00,58.4,36.6,30.01,SSW,198,14.0,15.0,44,0.00,,,0.00,VWS V12.08,2013-11-13 21:02:00,
2013-11-13 15:07:00,58.5,35.5,30.01,SSW,195,14.0,21.0,42,0.00,,,0.00,VWS V12.08,2013-11-13 21:07:00,
2013-11-13 15:12:00,58.5,36.1,30.01,SW,214,14.0,21.0,43,0.00,,,0.00,VWS V12.08,2013-11-13 21:12:00,
2013-11-13 15:17:00,58.4,36.0,30.02,SW,227,6.0,21.0,43,0.00,,,0.00,VWS V12.08,2013-11-13 21:17:00,
2013-11-13 15:22:00,58.5,36.1,30.02,WSW,240,12.0,21.0,43,0.00,,,0.00,VWS V12.08,2013-11-13 21:22:00,
2013-11-13 15:27:00,58.4,36.0,30.01,SW,221,7.0,21.0,43,0.00,,,0.00,VWS V12.08,2013-11-13 21:27:00,
2013-11-13 15:32:00,58.4,36.0,30.01,SW,222,11.0,13.0,43,0.00,,,0.00,VWS V12.08,2013-11-13 21:32:00,
2013-11-13 15:37:00,58.3,36.5,30.01,SSW,196,6.0,15.0,44,0.00,,,0.00,VWS V12.08,2013-11-13 21:37:00,
2013-11-13 15:42:00,58.3,37.1,30.02,SW,229,9.0,15.0,45,0.00,,,0.00,VWS V12.08,2013-11-13 21:42:00,
2013-11-13 15:47:00,58.2,36.4,30.01,SSW,196,12.0,15.0,44,0.00,,,0.00,VWS V12.08,2013-11-13 21:47:00,
2013-11-13 15:52:00,58.0,36.2,30.01,SSW,205,9.0,15.0,44,0.00,,,0.00,VWS V12.08,2013-11-13 21:52:00,
2013-11-13 15:57:00,57.8,36.0,30.02,SSW,210,3.0,15.0,44,0.00,,,0.00,VWS V12.08,2013-11-13 21:57:00,
2013-11-13 16:02:00,57.6,36.4,30.02,SSW,209,5.0,11.0,45,0.00,,,0.00,VWS V12.08,2013-11-13 22:02:00,
2013-11-13 16:08:00,57.4,36.8,30.01,SSW,210,5.0,12.0,46,0.00,,,0.00,VWS V12.08,2013-11-13 22:08:00,
2013-11-13 16:13:00,57.1,36.5,30.01,SSW,194,4.0,12.0,46,0.00,,,0.00,VWS V12.08,2013-11-13 22:13:00,
2013-11-13 16:18:00,56.9,36.9,30.01,SSW,207,3.0,12.0,47,0.00,,,0.00,VWS V12.08,2013-11-13 22:18:00,
2013-11-13 16:23:00,56.5,36.5,30.01,SW,229,4.0,12.0,47,0.00,,,0.00,VWS V12.08,2013-11-13 22:23:00,
2013-11-13 16:28:00,56.1,36.2,30.01,SSW,205,4.0,12.0,47,0.00,,,0.00,VWS V12.08,2013-11-13 22:28:00,
2013-11-13 16:33:00,55.5,36.2,30.01,SSW,200,5.0,11.0,48,0.00,,,0.00,VWS V12.08,2013-11-13 22:33:00,
2013-11-13 16:38:00,55.0,36.2,30.01,SE,138,6.0,11.0,49,0.00,,,0.00,VWS V12.08,2013-11-13 22:38:00,
2013-11-13 16:43:00,54.4,36.2,30.01,SSE,168,6.0,11.0,50,0.00,,,0.00,VWS V12.08,2013-11-13 22:43:00,
2013-11-13 16:48:00,53.9,35.7,30.01,SSW,195,5.0,11.0,50,0.00,,,0.00,VWS V12.08,2013-11-13 22:48:00,
2013-11-13 16:53:00,53.1,35.5,30.01,SSW,202,4.0,11.0,51,0.00,,,0.00,VWS V12.08,2013-11-13 22:53:00,
2013-11-13 16:58:00,52.2,35.6,30.01,SSW,203,8.0,11.0,53,0.00,,,0.00,VWS V12.08,2013-11-13 22:58:00,
2013-11-13 17:03:00,51.4,35.3,30.01,South,178,5.0,10.0,54,0.00,,,0.00,VWS V12.08,2013-11-13 23:03:00,
2013-11-13 17:08:00,50.6,35.0,30.00,South,188,6.0,10.0,55,0.00,,,0.00,VWS V12.08,2013-11-13 23:08:00,
2013-11-13 17:13:00,50.0,34.9,30.00,SSW,203,7.0,10.0,56,0.00,,,0.00,VWS V12.08,2013-11-13 23:13:00,
2013-11-13 17:18:00,49.4,34.8,30.00,SSW,202,6.0,10.0,57,0.00,,,0.00,VWS V12.08,2013-11-13 23:18:00,
2013-11-13 17:23:00,49.0,34.9,30.00,SSW,199,6.0,10.0,58,0.00,,,0.00,VWS V12.08,2013-11-13 23:23:00,
2013-11-13 17:28:00,48.7,34.6,30.00,SSW,206,9.0,13.0,58,0.00,,,0.00,VWS V12.08,2013-11-13 23:28:00,
2013-11-13 17:33:00,48.1,34.5,30.00,SE,146,10.0,10.0,59,0.00,,,0.00,VWS V12.08,2013-11-13 23:33:00,
2013-11-13 17:38:00,47.5,34.3,30.00,South,187,9.0,12.0,60,0.00,,,0.00,VWS V12.08,2013-11-13 23:38:00,
2013-11-13 17:43:00,47.2,34.0,30.00,South,172,9.0,13.0,60,0.00,,,0.00,VWS V12.08,2013-11-13 23:43:00,
2013-11-13 17:48:00,46.9,33.8,30.00,SSW,205,5.0,13.0,60,0.00,,,0.00,VWS V12.08,2013-11-13 23:48:00,
2013-11-13 17:53:00,46.2,33.5,30.00,SW,225,5.0,13.0,61,0.00,,,0.00,VWS V12.08,2013-11-13 23:53:00,
2013-11-13 17:58:00,45.6,33.3,30.00,SSW,206,7.0,13.0,62,0.00,,,0.00,VWS V12.08,2013-11-13 23:58:00,
2013-11-13 18:03:00,45.2,33.4,30.00,South,182,7.0,7.0,63,0.00,,,0.00,VWS V12.08,2013-11-14 00:03:00,
2013-11-13 18:08:00,44.8,33.0,30.00,South,176,6.0,12.0,63,0.00,,,0.00,VWS V12.08,2013-11-14 00:08:00,
2013-11-13 18:13:00,44.4,33.0,30.00,SW,225,9.0,12.0,64,0.00,,,0.00,VWS V12.08,2013-11-14 00:13:00,
2013-11-13 18:18:00,43.8,32.8,29.99,South,188,3.0,12.0,65,0.00,,,0.00,VWS V12.08,2013-11-14 00:18:00,
2013-11-13 18:23:00,43.3,32.7,30.00,South,187,7.0,12.0,66,0.00,,,0.00,VWS V12.08,2013-11-14 00:23:00,
2013-11-13 18:28:00,43.1,32.9,30.00,SSW,202,6.0,12.0,67,0.00,,,0.00,VWS V12.08,2013-11-14 00:28:00,
2013-11-13 18:33:00,42.9,32.7,30.00,SSW,194,7.0,10.0,67,0.00,,,0.00,VWS V12.08,2013-11-14 00:33:00,
2013-11-13 18:38:00,42.8,32.6,30.00,SSW,207,6.0,10.0,67,0.00,,,0.00,VWS V12.08,2013-11-14 00:38:00,
2013-11-13 18:43:00,42.7,32.5,30.00,SSW,202,7.0,11.0,67,0.00,,,0.00,VWS V12.08,2013-11-14 00:43:00,
2013-11-13 18:48:00,42.5,32.3,30.00,SSW,210,5.0,11.0,67,0.00,,,0.00,VWS V12.08,2013-11-14 00:48:00,
2013-11-13 18:53:00,42.4,32.6,29.99,SSW,205,6.0,11.0,68,0.00,,,0.00,VWS V12.08,2013-11-14 00:53:00,
2013-11-13 18:58:00,42.4,32.6,30.00,SW,219,5.0,11.0,68,0.00,,,0.00,VWS V12.08,2013-11-14 00:58:00,
2013-11-13 19:03:00,42.5,32.7,30.00,SSW,203,6.0,9.0,68,0.00,,,0.00,VWS V12.08,2013-11-14 01:03:00,
2013-11-13 19:08:00,42.6,32.4,29.99,SSW,195,4.0,11.0,67,0.00,,,0.00,VWS V12.08,2013-11-14 01:08:00,
2013-11-13 19:13:00,42.6,32.4,29.99,SSW,202,9.0,13.0,67,0.00,,,0.00,VWS V12.08,2013-11-14 01:13:00,
2013-11-13 19:18:00,42.5,32.3,30.00,SSW,213,8.0,14.0,67,0.00,,,0.00,VWS V12.08,2013-11-14 01:18:00,
2013-11-13 19:23:00,42.4,32.6,29.99,SSW,200,10.0,14.0,68,0.00,,,0.00,VWS V12.08,2013-11-14 01:23:00,
2013-11-13 19:28:00,42.3,32.5,29.99,South,183,8.0,14.0,68,0.00,,,0.00,VWS V12.08,2013-11-14 01:28:00,
2013-11-13 19:33:00,42.2,32.4,29.99,SSW,198,13.0,13.0,68,0.00,,,0.00,VWS V12.08,2013-11-14 01:33:00,
2013-11-13 19:38:00,42.0,32.6,29.98,SSW,210,10.0,13.0,69,0.00,,,0.00,VWS V12.08,2013-11-14 01:38:00,
2013-11-13 19:43:00,41.8,32.4,29.98,SSE,166,5.0,14.0,69,0.00,,,0.00,VWS V12.08,2013-11-14 01:43:00,
2013-11-13 19:48:00,41.7,32.7,29.98,SSW,202,9.0,14.0,70,0.00,,,0.00,VWS V12.08,2013-11-14 01:48:00,
2013-11-13 19:53:00,41.6,32.6,29.98,South,182,11.0,14.0,70,0.00,,,0.00,VWS V12.08,2013-11-14 01:53:00,
2013-11-13 19:58:00,41.5,32.5,29.97,SSE,161,6.0,14.0,70,0.00,,,0.00,VWS V12.08,2013-11-14 01:58:00,
2013-11-13 20:03:00,41.2,32.2,29.97,SW,225,4.0,11.0,70,0.00,,,0.00,VWS V12.08,2013-11-14 02:03:00,
2013-11-13 20:08:00,41.0,32.3,29.97,SSW,199,6.0,11.0,71,0.00,,,0.00,VWS V12.08,2013-11-14 02:08:00,
2013-11-13 20:13:00,40.8,32.1,29.96,SW,214,4.0,12.0,71,0.00,,,0.00,VWS V12.08,2013-11-14 02:13:00,
2013-11-13 20:18:00,40.6,32.3,29.97,SSW,206,6.0,12.0,72,0.00,,,0.00,VWS V12.08,2013-11-14 02:18:00,
2013-11-13 20:23:00,40.3,32.3,29.97,WSW,254,4.0,12.0,73,0.00,,,0.00,VWS V12.08,2013-11-14 02:23:00,
2013-11-13 20:28:00,40.4,32.4,29.97,SW,219,5.0,12.0,73,0.00,,,0.00,VWS V12.08,2013-11-14 02:28:00,
2013-11-13 20:32:00,40.2,32.2,29.98,SW,234,3.0,5.0,73,0.00,,,0.00,VWS V12.08,2013-11-14 02:32:00,
2013-11-13 20:37:00,39.9,32.3,29.98,SW,234,6.0,6.0,74,0.00,,,0.00,VWS V12.08,2013-11-14 02:37:00,
2013-11-13 20:42:00,39.9,32.3,29.98,SW,227,2.0,6.0,74,0.00,,,0.00,VWS V12.08,2013-11-14 02:42:00,
2013-11-13 20:47:00,39.7,32.1,29.98,SW,227,4.0,6.0,74,0.00,,,0.00,VWS V12.08,2013-11-14 02:47:00,
2013-11-13 20:53:00,39.9,32.3,29.98,SW,217,4.0,7.0,74,0.00,,,0.00,VWS V12.08,2013-11-14 02:53:00,
2013-11-13 20:58:00,39.8,32.2,29.97,SSW,207,4.0,7.0,74,0.00,,,0.00,VWS V12.08,2013-11-14 02:58:00,
2013-11-13 21:03:00,39.7,32.1,29.97,SSW,200,4.0,6.0,74,0.00,,,0.00,VWS V12.08,2013-11-14 03:03:00,
2013-11-13 21:08:00,39.5,31.9,29.97,SSW,213,3.0,6.0,74,0.00,,,0.00,VWS V12.08,2013-11-14 03:08:00,
2013-11-13 21:13:00,39.3,32.0,29.98,SW,219,2.0,6.0,75,0.00,,,0.00,VWS V12.08,2013-11-14 03:13:00,
2013-11-13 21:18:00,39.3,32.0,29.97,SW,232,1.0,6.0,75,0.00,,,0.00,VWS V12.08,2013-11-14 03:18:00,
2013-11-13 21:23:00,39.2,32.0,29.97,SSW,193,1.0,6.0,75,0.00,,,0.00,VWS V12.08,2013-11-14 03:23:00,
2013-11-13 21:28:00,39.1,31.9,29.97,SSE,157,4.0,6.0,75,0.00,,,0.00,VWS V12.08,2013-11-14 03:28:00,
2013-11-13 21:33:00,38.8,31.6,29.96,SSE,162,3.0,5.0,75,0.00,,,0.00,VWS V12.08,2013-11-14 03:33:00,
2013-11-13 21:38:00,38.7,31.8,29.96,SSW,210,1.0,5.0,76,0.00,,,0.00,VWS V12.08,2013-11-14 03:38:00,
2013-11-13 21:43:00,38.4,31.5,29.97,SSW,213,1.0,5.0,76,0.00,,,0.00,VWS V12.08,2013-11-14 03:43:00,
2013-11-13 21:48:00,38.3,31.7,29.96,SSW,202,3.0,5.0,77,0.00,,,0.00,VWS V12.08,2013-11-14 03:48:00,
2013-11-13 21:53:00,38.2,31.6,29.96,SSW,210,2.0,5.0,77,0.00,,,0.00,VWS V12.08,2013-11-14 03:53:00,
2013-11-13 21:58:00,38.2,31.6,29.96,SSW,195,3.0,5.0,77,0.00,,,0.00,VWS V12.08,2013-11-14 03:58:00,
2013-11-13 22:03:00,38.0,31.8,29.95,SSW,196,2.0,4.0,78,0.00,,,0.00,VWS V12.08,2013-11-14 04:03:00,
2013-11-13 22:08:00,37.9,31.7,29.95,South,187,2.0,4.0,78,0.00,,,0.00,VWS V12.08,2013-11-14 04:08:00,
2013-11-13 22:13:00,37.8,31.6,29.95,South,172,2.0,4.0,78,0.00,,,0.00,VWS V12.08,2013-11-14 04:13:00,
2013-11-13 22:18:00,37.7,31.5,29.95,SSW,210,1.0,4.0,78,0.00,,,0.00,VWS V12.08,2013-11-14 04:18:00,
2013-11-13 22:23:00,37.5,31.3,29.95,SW,232,1.0,4.0,78,0.00,,,0.00,VWS V12.08,2013-11-14 04:23:00,
2013-11-13 22:28:00,37.5,31.6,29.96,SW,234,0.0,4.0,79,0.00,,,0.00,VWS V12.08,2013-11-14 04:28:00,
2013-11-13 22:33:00,37.7,31.8,29.96,West,273,0.0,1.0,79,0.00,,,0.00,VWS V12.08,2013-11-14 04:33:00,
2013-11-13 22:38:00,37.7,31.8,29.96,West,272,1.0,1.0,79,0.00,,,0.00,VWS V12.08,2013-11-14 04:38:00,
2013-11-13 22:43:00,37.7,31.8,29.95,West,272,0.0,1.0,79,0.00,,,0.00,VWS V12.08,2013-11-14 04:43:00,
2013-11-13 22:48:00,37.5,31.6,29.95,SSW,210,1.0,2.0,79,0.00,,,0.00,VWS V12.08,2013-11-14 04:48:00,
2013-11-13 22:53:00,37.3,31.4,29.95,SSW,210,1.0,2.0,79,0.00,,,0.00,VWS V12.08,2013-11-14 04:53:00,
2013-11-13 22:58:00,37.1,31.5,29.95,SSW,202,1.0,2.0,80,0.00,,,0.00,VWS V12.08,2013-11-14 04:58:00,
2013-11-13 23:01:00,37.1,31.5,29.94,SSW,194,1.0,2.0,80,0.00,,,0.00,VWS V12.08,2013-11-14 05:01:00,
2013-11-13 23:02:00,37.1,31.5,29.94,SSW,194,1.0,1.0,80,0.00,,,0.00,VWS V12.08,2013-11-14 05:02:00,
2013-11-13 23:07:00,37.0,31.4,29.94,SSW,202,1.0,2.0,80,0.00,,,0.00,VWS V12.08,2013-11-14 05:07:00,
2013-11-13 23:12:00,37.1,31.5,29.94,SSW,210,1.0,2.0,80,0.00,,,0.00,VWS V12.08,2013-11-14 05:12:00,
2013-11-13 23:17:00,36.9,31.3,29.94,SW,229,0.0,2.0,80,0.00,,,0.00,VWS V12.08,2013-11-14 05:17:00,
2013-11-13 23:22:00,36.7,31.4,29.94,WSW,249,2.0,2.0,81,0.00,,,0.00,VWS V12.08,2013-11-14 05:22:00,
2013-11-13 23:27:00,36.7,31.4,29.94,WSW,248,2.0,3.0,81,0.00,,,0.00,VWS V12.08,2013-11-14 05:27:00,
2013-11-13 23:32:00,36.6,31.3,29.94,West,260,2.0,2.0,81,0.00,,,0.00,VWS V12.08,2013-11-14 05:32:00,
2013-11-13 23:37:00,36.7,31.7,29.94,WSW,246,2.0,3.0,82,0.00,,,0.00,VWS V12.08,2013-11-14 05:37:00,
2013-11-13 23:42:00,37.0,31.7,29.94,SW,222,4.0,4.0,81,0.00,,,0.00,VWS V12.08,2013-11-14 05:42:00,
2013-11-13 23:47:00,37.1,31.8,29.93,SW,222,3.0,4.0,81,0.00,,,0.00,VWS V12.08,2013-11-14 05:47:00,
2013-11-13 23:52:00,36.8,31.2,29.93,SSW,192,2.0,4.0,80,0.00,,,0.00,VWS V12.08,2013-11-14 05:52:00,
2013-11-13 23:56:00,36.6,31.3,29.93,SSE,167,1.0,4.0,81,0.00,,,0.00,VWS V12.08,2013-11-14 05:56:00,